Time;durP1;ratioP1;P1;durP2;ratioP2;P2;SDS_P1;SDS_P2;PMS_P1;PMS_P2;Temp;Humidity;BMP_temperature;BMP_pressure;BME280_temperature;BME280_humidity;BME280_pressure;Samples;Min_cycle;Max_cycle;Signal;HPM_P1;HPM_P2
2024/03/22 00:00:21;;;;;;;14.10;7.07;;;7.80;98.00;;;;;;5074196;28;20946;-65
2024/03/22 00:02:50;;;;;;;17.53;7.27;;;7.80;98.00;;;;;;5073941;28;21019;-65
2024/03/22 00:05:16;;;;;;;18.20;7.00;;;7.70;98.00;;;;;;5073904;28;20515;-65
2024/03/22 00:07:43;;;;;;;12.50;6.83;;;7.70;98.00;;;;;;5073758;28;20481;-65
2024/03/22 00:10:09;;;;;;;13.77;6.97;;;7.80;98.00;;;;;;5056136;28;20462;-65
2024/03/22 00:12:37;;;;;;;13.27;6.83;;;7.60;98.00;;;;;;5073756;28;20523;-65
2024/03/22 00:15:05;;;;;;;15.20;7.10;;;7.60;98.00;;;;;;5056192;28;20491;-65
2024/03/22 00:17:33;;;;;;;15.67;7.17;;;7.60;98.00;;;;;;5073412;28;20476;-65
2024/03/22 00:20:00;;;;;;;15.53;6.90;;;7.50;98.00;;;;;;5073884;28;20460;-65
2024/03/22 00:22:27;;;;;;;17.27;7.50;;;7.60;98.00;;;;;;5073814;28;20538;-65
2024/03/22 00:24:53;;;;;;;18.23;7.50;;;7.70;98.00;;;;;;5073994;28;20464;-65
2024/03/22 00:27:20;;;;;;;15.73;7.43;;;8.00;98.00;;;;;;5073384;28;20493;-65
2024/03/22 00:29:47;;;;;;;13.23;6.83;;;8.10;98.00;;;;;;5073596;28;20514;-64
2024/03/22 00:32:15;;;;;;;13.10;6.60;;;8.00;98.00;;;;;;5073470;28;20508;-64
2024/03/22 00:34:41;;;;;;;13.97;6.73;;;7.90;98.00;;;;;;5073350;28;21080;-66
2024/03/22 00:37:10;;;;;;;13.47;6.93;;;7.70;98.00;;;;;;5073063;28;20461;-65
2024/03/22 00:39:36;;;;;;;14.90;7.00;;;7.60;98.00;;;;;;5073007;28;20448;-65
2024/03/22 00:42:03;;;;;;;15.80;7.40;;;7.30;98.00;;;;;;5072881;28;20481;-65
2024/03/22 00:44:29;;;;;;;19.03;8.80;;;7.20;98.00;;;;;;5072990;28;20459;-65
2024/03/22 00:46:56;;;;;;;14.90;7.50;;;7.10;98.00;;;;;;5072857;28;20485;-64
2024/03/22 00:49:24;;;;;;;15.27;7.17;;;7.10;98.00;;;;;;5055151;28;20465;-65
2024/03/22 00:51:51;;;;;;;13.70;6.80;;;7.20;98.00;;;;;;5073133;28;20461;-65
2024/03/22 00:54:19;;;;;;;15.90;6.63;;;7.30;98.00;;;;;;5072452;28;20457;-64
2024/03/22 00:56:47;;;;;;;11.77;6.50;;;7.30;98.00;;;;;;5072671;28;20457;-65
2024/03/22 00:59:13;;;;;;;13.50;6.83;;;7.50;98.00;;;;;;5055209;28;20456;-65
2024/03/22 01:01:40;;;;;;;14.13;6.70;;;7.40;98.00;;;;;;5072709;28;20966;-65
2024/03/22 01:04:08;;;;;;;17.90;6.90;;;7.40;98.00;;;;;;5072232;28;20495;-65
2024/03/22 01:06:39;;;;;;;13.40;6.47;;;7.40;98.00;;;;;;5072555;28;20539;-65
2024/03/22 01:09:06;;;;;;;13.97;7.00;;;7.30;98.00;;;;;;5072461;28;20445;-65
2024/03/22 01:11:34;;;;;;;14.43;7.40;;;7.30;98.00;;;;;;5054594;28;20956;-65
2024/03/22 01:14:00;;;;;;;17.80;7.50;;;7.30;98.00;;;;;;5072388;28;20444;-65
2024/03/22 01:16:27;;;;;;;14.70;7.00;;;7.20;98.00;;;;;;5072270;28;20526;-65
2024/03/22 01:18:53;;;;;;;13.77;7.00;;;7.20;98.00;;;;;;5072257;28;20455;-65
2024/03/22 01:21:24;;;;;;;13.57;7.07;;;7.00;98.00;;;;;;5072343;28;20504;-64
2024/03/22 01:23:51;;;;;;;18.10;7.23;;;7.10;98.00;;;;;;5072265;28;20544;-65
2024/03/22 01:26:18;;;;;;;13.90;6.27;;;7.30;98.00;;;;;;5072267;28;21016;-65
2024/03/22 01:28:46;;;;;;;15.17;6.70;;;7.40;98.00;;;;;;5054471;28;20444;-65
2024/03/22 01:31:13;;;;;;;11.70;6.00;;;7.40;98.00;;;;;;5071924;28;20464;-64
2024/03/22 01:33:39;;;;;;;14.67;6.70;;;7.40;98.00;;;;;;5072246;28;20457;-65
2024/03/22 01:36:08;;;;;;;15.33;7.10;;;7.20;98.00;;;;;;5072039;28;20506;-65
2024/03/22 01:38:34;;;;;;;17.57;7.07;;;7.00;98.00;;;;;;5072045;28;20464;-65
2024/03/22 01:41:01;;;;;;;19.40;8.20;;;6.90;98.00;;;;;;5072200;28;20464;-65
2024/03/22 01:43:27;;;;;;;14.67;7.07;;;6.70;98.00;;;;;;5072017;28;20953;-65
2024/03/22 01:45:56;;;;;;;15.93;7.20;;;6.70;98.00;;;;;;5072148;28;20474;-65
2024/03/22 01:48:22;;;;;;;14.60;7.23;;;6.70;98.00;;;;;;5071907;28;20485;-65
2024/03/22 01:50:49;;;;;;;14.83;7.07;;;6.80;98.00;;;;;;5071927;28;20456;-65
2024/03/22 01:53:15;;;;;;;15.57;6.90;;;6.70;98.00;;;;;;5071710;28;20458;-65
2024/03/22 01:55:43;;;;;;;13.77;7.20;;;6.70;98.00;;;;;;5054356;28;20463;-65
2024/03/22 01:58:09;;;;;;;16.63;7.53;;;6.60;98.00;;;;;;5071922;28;20958;-65
2024/03/22 02:00:36;;;;;;;16.20;6.97;;;6.50;98.00;;;;;;5072074;28;20478;-65
2024/03/22 02:03:04;;;;;;;15.87;7.63;;;6.60;98.00;;;;;;5071907;28;20459;-64
2024/03/22 02:05:31;;;;;;;13.97;6.57;;;6.70;98.00;;;;;;5071717;28;20459;-65
2024/03/22 02:07:57;;;;;;;15.67;7.13;;;6.50;98.00;;;;;;5071758;28;20487;-65
2024/03/22 02:10:24;;;;;;;13.10;6.70;;;6.40;98.00;;;;;;5072131;28;20524;-65
2024/03/22 02:12:51;;;;;;;16.57;7.20;;;6.30;98.00;;;;;;5071864;28;20828;-65
2024/03/22 02:15:18;;;;;;;15.20;7.20;;;6.30;98.00;;;;;;5053745;28;20491;-65
2024/03/22 02:17:45;;;;;;;13.73;6.40;;;6.30;98.00;;;;;;5071751;28;20472;-65
2024/03/22 02:20:14;;;;;;;13.43;6.87;;;6.20;98.00;;;;;;5071503;28;20471;-65
2024/03/22 02:22:40;;;;;;;18.17;7.60;;;6.10;98.00;;;;;;5071298;28;20863;-65
2024/03/22 02:25:09;;;;;;;14.50;7.37;;;6.10;98.00;;;;;;5071397;28;20471;-65
2024/03/22 02:27:35;;;;;;;18.07;7.20;;;6.20;98.00;;;;;;5071640;28;20488;-64
2024/03/22 02:30:02;;;;;;;18.90;7.10;;;6.40;98.00;;;;;;5071615;28;20555;-65
2024/03/22 02:32:28;;;;;;;18.53;7.47;;;6.40;98.00;;;;;;5071184;28;20977;-65
2024/03/22 02:34:56;;;;;;;15.60;7.10;;;6.50;98.00;;;;;;5071464;28;20548;-65
2024/03/22 02:37:22;;;;;;;16.20;6.97;;;6.60;98.00;;;;;;5071338;28;20536;-65
2024/03/22 02:39:49;;;;;;;13.07;6.37;;;6.90;98.00;;;;;;5071477;28;20463;-65
2024/03/22 02:42:17;;;;;;;14.37;7.07;;;6.90;98.00;;;;;;5071180;28;20451;-65
2024/03/22 02:44:44;;;;;;;16.60;6.97;;;6.70;98.00;;;;;;5071384;28;20474;-64
2024/03/22 02:47:10;;;;;;;18.70;8.00;;;6.50;98.00;;;;;;5071194;28;20485;-65
2024/03/22 02:49:39;;;;;;;14.60;7.40;;;6.40;98.00;;;;;;5061346;28;20452;-64
2024/03/22 02:52:05;;;;;;;16.50;7.57;;;6.30;98.00;;;;;;5051281;28;20929;-64
2024/03/22 02:54:33;;;;;;;14.80;6.97;;;6.20;98.00;;;;;;5051355;28;20463;-64
2024/03/22 02:56:59;;;;;;;27.03;6.57;;;6.20;98.00;;;;;;5051192;28;20966;-65
2024/03/22 02:59:28;;;;;;;19.87;7.27;;;6.10;98.00;;;;;;5033195;28;20464;-65
2024/03/22 03:01:55;;;;;;;18.73;7.17;;;6.20;98.00;;;;;;5051477;28;20447;-65
2024/03/22 03:04:23;;;;;;;19.47;7.00;;;6.10;98.00;;;;;;5055130;28;20864;-65
2024/03/22 03:06:49;;;;;;;17.10;7.53;;;6.10;98.00;;;;;;5037255;28;20554;-65
2024/03/22 03:09:16;;;;;;;14.80;6.97;;;6.00;98.00;;;;;;5054786;28;20468;-65
2024/03/22 03:11:43;;;;;;;16.27;6.83;;;5.90;98.00;;;;;;5037166;28;20456;-65
2024/03/22 03:14:10;;;;;;;16.80;7.07;;;6.00;98.00;;;;;;5054815;28;20466;-65
2024/03/22 03:16:37;;;;;;;15.30;6.67;;;6.00;98.00;;;;;;5036729;28;20468;-64
2024/03/22 03:19:05;;;;;;;16.17;6.93;;;6.10;98.00;;;;;;5054598;28;20468;-65
2024/03/22 03:21:31;;;;;;;15.17;6.50;;;6.10;98.00;;;;;;5054981;28;20814;-64
2024/03/22 03:23:58;;;;;;;14.40;6.93;;;6.10;98.00;;;;;;5054639;28;20555;-65
2024/03/22 03:26:25;;;;;;;13.20;6.37;;;6.10;98.00;;;;;;5054638;28;21178;-66
2024/03/22 03:28:52;;;;;;;11.77;6.30;;;6.10;98.00;;;;;;5054121;28;20578;-65
2024/03/22 03:31:18;;;;;;;13.00;6.50;;;6.20;98.00;;;;;;5053122;28;20459;-65
2024/03/22 03:33:46;;;;;;;12.67;6.40;;;6.20;98.00;;;;;;5054666;28;20877;-65
2024/03/22 03:36:12;;;;;;;16.57;7.63;;;6.20;98.00;;;;;;5054485;28;20550;-64
2024/03/22 03:38:39;;;;;;;14.53;6.87;;;6.20;98.00;;;;;;5053878;28;20548;-65
2024/03/22 03:41:05;;;;;;;20.03;7.07;;;6.10;98.00;;;;;;5054476;28;20966;-64
2024/03/22 03:43:32;;;;;;;16.50;7.57;;;6.00;98.00;;;;;;5054537;28;20494;-64
2024/03/22 03:45:59;;;;;;;14.13;6.63;;;5.80;98.00;;;;;;5054768;28;20464;-64
2024/03/22 03:48:27;;;;;;;15.57;6.00;;;5.90;98.00;;;;;;5036755;28;20514;-65
2024/03/22 03:50:59;;;;;;;12.70;6.10;;;5.90;98.00;;;;;;5054566;28;20448;-65
2024/03/22 03:53:26;;;;;;;16.60;7.27;;;5.80;98.00;;;;;;5054291;28;20476;-64
2024/03/22 03:55:52;;;;;;;24.83;8.50;;;5.90;98.00;;;;;;5054556;28;20931;-64
2024/03/22 03:58:20;;;;;;;23.80;10.27;;;5.90;98.00;;;;;;5053968;28;20471;-65
2024/03/22 04:00:46;;;;;;;16.97;7.30;;;5.90;98.00;;;;;;5054567;28;20461;-65
2024/03/22 04:03:13;;;;;;;17.67;7.37;;;5.80;98.00;;;;;;5053955;28;20500;-65
2024/03/22 04:05:39;;;;;;;18.10;7.40;;;5.70;98.00;;;;;;5054061;28;20450;-64
2024/03/22 04:08:08;;;;;;;19.23;7.73;;;5.60;98.00;;;;;;5054010;28;20576;-65
2024/03/22 04:10:34;;;;;;;16.10;7.20;;;5.50;98.00;;;;;;5053800;28;20471;-64
2024/03/22 04:13:01;;;;;;;16.87;7.33;;;5.50;98.00;;;;;;5053528;28;20554;-65
2024/03/22 04:15:27;;;;;;;16.33;7.43;;;5.60;98.00;;;;;;5053031;28;20451;-65
2024/03/22 04:17:57;;;;;;;18.30;7.13;;;5.70;98.00;;;;;;5053496;28;20532;-65
2024/03/22 04:20:23;;;;;;;16.10;7.10;;;5.80;98.00;;;;;;5053694;28;20456;-65
2024/03/22 04:22:52;;;;;;;15.40;6.70;;;5.60;98.00;;;;;;5053247;28;20458;-64
2024/03/22 04:25:19;;;;;;;15.60;6.93;;;5.50;98.00;;;;;;5036076;28;20966;-65
2024/03/22 04:27:46;;;;;;;15.10;6.73;;;5.70;98.00;;;;;;5053305;28;20483;-64
2024/03/22 04:30:13;;;;;;;16.10;7.50;;;5.60;98.00;;;;;;5053325;28;20519;-64
2024/03/22 04:32:40;;;;;;;15.97;7.20;;;5.50;98.00;;;;;;5053149;28;20570;-64
2024/03/22 04:35:06;;;;;;;15.33;7.40;;;5.40;98.00;;;;;;5053266;28;20451;-65
2024/03/22 04:37:33;;;;;;;17.57;7.50;;;5.30;98.00;;;;;;5053165;28;20463;-64
2024/03/22 04:40:00;;;;;;;14.03;7.33;;;5.30;98.00;;;;;;5053407;28;20949;-65
2024/03/22 04:42:29;;;;;;;14.97;7.27;;;5.20;98.00;;;;;;5053044;28;20966;-65
2024/03/22 04:44:57;;;;;;;17.17;6.93;;;5.30;98.00;;;;;;5053260;28;20461;-65
2024/03/22 04:47:23;;;;;;;18.23;6.73;;;5.30;98.00;;;;;;5053084;28;20560;-64
2024/03/22 04:49:56;;;;;;;15.63;6.60;;;5.50;98.00;;;;;;5053247;28;20463;-64
2024/03/22 04:52:22;;;;;;;16.20;7.00;;;5.60;98.00;;;;;;5035320;28;20475;-64
2024/03/22 04:54:49;;;;;;;19.17;7.80;;;5.70;98.00;;;;;;5053019;28;20501;-64
2024/03/22 04:57:16;;;;;;;16.90;7.23;;;5.60;98.00;;;;;;5052751;28;20456;-64
2024/03/22 04:59:45;;;;;;;18.33;7.10;;;5.60;98.00;;;;;;5052887;28;20462;-64
2024/03/22 05:02:11;;;;;;;17.20;7.57;;;5.60;98.00;;;;;;5052929;28;20462;-65
2024/03/22 05:04:38;;;;;;;17.10;7.80;;;5.40;98.00;;;;;;5053222;28;20551;-64
2024/03/22 05:07:05;;;;;;;14.10;7.07;;;5.30;98.00;;;;;;5052755;28;20460;-65
2024/03/22 05:09:32;;;;;;;16.00;7.33;;;5.20;98.00;;;;;;5053037;28;20469;-65
2024/03/22 05:11:59;;;;;;;17.90;6.53;;;5.10;98.00;;;;;;5052784;28;20456;-65
2024/03/22 05:14:26;;;;;;;12.47;6.50;;;4.90;98.00;;;;;;5052585;28;20955;-64
2024/03/22 05:16:54;;;;;;;12.27;6.80;;;4.90;98.00;;;;;;5052587;28;20466;-65
2024/03/22 05:19:21;;;;;;;13.27;6.17;;;5.00;98.00;;;;;;5052503;28;20456;-64
2024/03/22 05:21:47;;;;;;;13.03;6.60;;;5.00;98.00;;;;;;5052687;28;21131;-65
2024/03/22 05:24:14;;;;;;;20.93;6.97;;;5.10;98.00;;;;;;5052536;28;21142;-64
2024/03/22 05:26:40;;;;;;;14.60;6.27;;;5.20;98.00;;;;;;5051606;28;20454;-64
2024/03/22 05:29:07;;;;;;;17.60;6.80;;;5.30;98.00;;;;;;5052290;28;20517;-64
2024/03/22 05:31:46;;;;;;;17.60;6.70;;;5.30;98.00;;;;;;5052284;28;21103;-65
2024/03/22 05:34:16;;;;;;;17.40;7.40;;;5.40;98.00;;;;;;5052306;28;20531;-65
2024/03/22 05:36:42;;;;;;;15.30;6.87;;;5.50;98.00;;;;;;5052195;28;20451;-64
2024/03/22 05:39:10;;;;;;;16.00;6.90;;;5.50;98.00;;;;;;5051622;28;20488;-65
2024/03/22 05:41:36;;;;;;;14.07;6.87;;;5.60;98.00;;;;;;5051645;28;20542;-64
2024/03/22 05:44:04;;;;;;;17.37;6.43;;;5.60;98.00;;;;;;5051605;28;20491;-63
2024/03/22 05:46:30;;;;;;;15.20;7.50;;;5.70;98.00;;;;;;5052396;28;20448;-64
2024/03/22 05:48:59;;;;;;;12.20;6.10;;;5.70;98.00;;;;;;5052220;28;20562;-64
2024/03/22 05:51:27;;;;;;;15.03;6.07;;;5.80;98.00;;;;;;5052204;28;20459;-65
2024/03/22 05:53:54;;;;;;;14.03;6.57;;;5.90;98.00;;;;;;5051952;28;20574;-64
2024/03/22 05:56:20;;;;;;;9.80;5.47;;;6.10;98.00;;;;;;5052102;28;20479;-65
2024/03/22 05:58:48;;;;;;;15.57;7.07;;;6.10;98.00;;;;;;5051572;28;20562;-64
2024/03/22 06:01:17;;;;;;;13.30;6.70;;;6.20;98.00;;;;;;5051827;28;20450;-65
2024/03/22 06:03:44;;;;;;;15.50;7.13;;;6.30;98.00;;;;;;5051907;28;20473;-65
2024/03/22 06:06:10;;;;;;;15.80;6.90;;;6.40;98.00;;;;;;5051675;28;20517;-65
2024/03/22 06:08:41;;;;;;;15.77;6.13;;;6.40;98.00;;;;;;5051507;28;20515;-65
2024/03/22 06:11:08;;;;;;;20.57;6.93;;;6.50;98.00;;;;;;5051482;28;20510;-64
2024/03/22 06:13:36;;;;;;;14.60;6.47;;;6.50;98.00;;;;;;5051699;28;20520;-65
2024/03/22 06:16:03;;;;;;;15.73;6.60;;;6.50;98.00;;;;;;5051702;28;20465;-64
2024/03/22 06:18:30;;;;;;;13.63;6.70;;;6.50;98.00;;;;;;5051879;28;20468;-64
2024/03/22 06:20:56;;;;;;;14.33;6.47;;;6.50;98.00;;;;;;5051433;28;20460;-64
2024/03/22 06:23:24;;;;;;;22.00;6.50;;;6.50;98.00;;;;;;5051442;28;20471;-64
2024/03/22 06:25:55;;;;;;;14.10;5.80;;;6.50;98.00;;;;;;5051680;28;20461;-65
2024/03/22 06:28:23;;;;;;;13.17;6.87;;;6.50;98.00;;;;;;5051324;28;20524;-64
2024/03/22 06:30:50;;;;;;;14.70;6.70;;;6.60;98.00;;;;;;5033686;28;20468;-65
2024/03/22 06:33:18;;;;;;;13.63;6.90;;;6.60;98.00;;;;;;5051280;28;21103;-64
2024/03/22 06:35:46;;;;;;;13.07;6.37;;;6.60;98.00;;;;;;5048148;28;20447;-64
2024/03/22 06:38:14;;;;;;;14.13;6.60;;;6.70;98.00;;;;;;5053577;28;20457;-65
2024/03/22 06:40:40;;;;;;;17.67;6.90;;;6.70;98.00;;;;;;5055754;28;20452;-64
2024/03/22 06:43:09;;;;;;;13.50;6.00;;;6.70;98.00;;;;;;5055611;28;20464;-65
2024/03/22 06:45:35;;;;;;;16.30;7.07;;;6.70;98.00;;;;;;5055528;28;20459;-64
2024/03/22 06:48:02;;;;;;;13.53;6.37;;;6.60;98.00;;;;;;5055487;28;20817;-64
2024/03/22 06:50:29;;;;;;;16.33;6.87;;;6.60;98.00;;;;;;5055357;28;20464;-64
2024/03/22 06:52:56;;;;;;;14.83;6.77;;;6.60;98.00;;;;;;5037807;28;20463;-64
2024/03/22 06:55:22;;;;;;;11.83;6.07;;;6.70;98.00;;;;;;5037883;28;20460;-65
2024/03/22 06:57:51;;;;;;;18.30;6.70;;;6.70;98.00;;;;;;5055442;28;20954;-65
2024/03/22 07:00:19;;;;;;;19.80;8.20;;;6.70;98.00;;;;;;5055318;28;20456;-61
2024/03/22 07:02:46;;;;;;;17.23;7.47;;;6.60;98.00;;;;;;5055564;28;21067;-62
2024/03/22 07:05:12;;;;;;;17.60;7.90;;;6.50;98.00;;;;;;5055354;28;20513;-62
2024/03/22 07:07:39;;;;;;;16.13;7.90;;;6.40;98.00;;;;;;5055100;28;20495;-62
2024/03/22 07:10:06;;;;;;;19.17;8.37;;;6.30;98.00;;;;;;5055332;28;20450;-62
2024/03/22 07:12:34;;;;;;;18.23;7.97;;;6.30;98.00;;;;;;5055257;28;20487;-61
2024/03/22 07:15:02;;;;;;;19.63;8.23;;;6.40;98.00;;;;;;5037764;28;20451;-62
2024/03/22 07:17:30;;;;;;;19.13;7.67;;;6.50;98.00;;;;;;5055073;28;20465;-62
2024/03/22 07:19:57;;;;;;;16.67;8.20;;;6.80;98.00;;;;;;5054958;28;20961;-62
2024/03/22 07:22:24;;;;;;;22.63;8.70;;;7.10;98.00;;;;;;5054994;28;20470;-62
2024/03/22 07:24:51;;;;;;;24.03;9.07;;;7.10;98.00;;;;;;5055423;28;20457;-62
2024/03/22 07:27:18;;;;;;;20.33;8.30;;;7.30;98.00;;;;;;5054997;28;20543;-62
2024/03/22 07:29:46;;;;;;;20.50;8.40;;;7.50;98.00;;;;;;5054943;28;20456;-62
2024/03/22 07:32:13;;;;;;;23.80;9.00;;;7.60;98.00;;;;;;5054857;28;20544;-62
2024/03/22 07:34:40;;;;;;;20.70;8.90;;;7.70;98.00;;;;;;5057303;28;20882;-62
2024/03/22 07:37:07;;;;;;;20.73;8.70;;;7.90;98.00;;;;;;5074799;28;20459;-62
2024/03/22 07:39:34;;;;;;;18.13;8.27;;;7.90;98.00;;;;;;5074773;28;21138;-62
2024/03/22 07:42:02;;;;;;;21.07;9.23;;;8.00;98.00;;;;;;5074880;28;20532;-62
2024/03/22 07:44:28;;;;;;;18.30;8.27;;;8.10;98.00;;;;;;5074481;28;20448;-62
2024/03/22 07:46:56;;;;;;;19.53;8.50;;;8.10;98.00;;;;;;5074307;28;20491;-62
2024/03/22 07:49:22;;;;;;;22.37;9.50;;;8.20;98.00;;;;;;5073128;28;20545;-62
2024/03/22 07:52:00;;;;;;;25.30;10.13;;;8.30;98.00;;;;;;5074636;28;20465;-62
2024/03/22 07:54:26;;;;;;;20.43;8.90;;;8.30;98.00;;;;;;5073861;28;20555;-62
2024/03/22 07:56:53;;;;;;;25.03;9.10;;;8.60;98.00;;;;;;5074206;28;20536;-62
2024/03/22 07:59:19;;;;;;;19.93;9.23;;;8.80;98.00;;;;;;5073862;28;20456;-62
2024/03/22 08:01:48;;;;;;;23.87;9.10;;;8.90;98.00;;;;;;5074099;28;20462;-62
2024/03/22 08:04:14;;;;;;;26.30;9.70;;;9.00;98.00;;;;;;5074123;28;20541;-62
2024/03/22 08:06:41;;;;;;;23.80;9.80;;;9.30;98.00;;;;;;5074117;28;20468;-62
2024/03/22 08:09:09;;;;;;;27.60;9.17;;;9.40;98.00;;;;;;5074071;28;21151;-62
2024/03/22 08:11:36;;;;;;;18.87;9.03;;;9.70;98.00;;;;;;5073996;28;20462;-62
2024/03/22 08:14:03;;;;;;;21.77;9.07;;;9.80;98.00;;;;;;5074108;28;20457;-62
2024/03/22 08:16:30;;;;;;;20.77;9.20;;;10.00;98.00;;;;;;5073916;28;20468;-62
2024/03/22 08:18:57;;;;;;;17.47;8.23;;;10.10;98.00;;;;;;5073797;28;20496;-62
2024/03/22 08:21:24;;;;;;;18.90;9.17;;;10.30;98.00;;;;;;5073708;28;20466;-62
2024/03/22 08:23:51;;;;;;;21.07;9.40;;;10.60;98.00;;;;;;5073646;28;20514;-62
2024/03/22 08:26:19;;;;;;;24.73;9.70;;;10.80;98.00;;;;;;5073779;28;20491;-62
2024/03/22 08:28:46;;;;;;;19.33;9.30;;;11.00;98.00;;;;;;5073356;28;20485;-62
2024/03/22 08:31:14;;;;;;;23.07;10.80;;;11.20;98.00;;;;;;5073491;28;21009;-63
2024/03/22 08:33:41;;;;;;;20.60;9.37;;;11.50;98.00;;;;;;5073422;28;20460;-63
2024/03/22 08:36:08;;;;;;;19.37;9.07;;;11.70;98.00;;;;;;5073559;28;20470;-62
2024/03/22 08:38:34;;;;;;;17.67;8.90;;;12.10;98.00;;;;;;5055697;28;20488;-62
2024/03/22 08:41:02;;;;;;;18.23;8.50;;;12.30;98.00;;;;;;5073647;28;20948;-62
2024/03/22 08:43:30;;;;;;;18.30;9.20;;;12.60;98.00;;;;;;5073299;28;20457;-62
2024/03/22 08:45:57;;;;;;;21.17;8.90;;;12.90;98.00;;;;;;5055592;28;20465;-62
2024/03/22 08:48:23;;;;;;;9.80;5.03;;;13.20;98.00;;;;;;5073144;28;20483;-64
2024/03/22 08:50:51;;;;;;;11.43;5.50;;;13.60;98.00;;;;;;5073420;28;21020;-64
2024/03/22 08:53:17;;;;;;;9.27;4.90;;;14.20;98.00;;;;;;5073155;28;20461;-64
2024/03/22 08:55:47;;;;;;;19.83;8.80;;;14.60;98.00;;;;;;5073224;28;20537;-62
2024/03/22 08:58:14;;;;;;;18.23;8.20;;;15.10;98.00;;;;;;5072991;28;20484;-62
2024/03/22 09:00:43;;;;;;;18.83;8.97;;;15.30;98.00;;;;;;5072844;28;20465;-62
2024/03/22 09:05:45;;;;;;;17.53;8.60;;;15.50;98.00;;;;;;5110622;22;20497;-61
2024/03/22 09:08:12;;;;;;;17.97;7.93;;;15.50;98.00;;;;;;5032086;28;20532;-61
2024/03/22 09:10:40;;;;;;;14.33;7.90;;;15.60;98.00;;;;;;5032511;28;20453;-61
2024/03/22 09:13:06;;;;;;;14.57;7.70;;;15.70;98.00;;;;;;5032208;28;20454;-61
2024/03/22 09:15:33;;;;;;;18.70;8.13;;;15.70;98.00;;;;;;5032120;28;20504;-61
2024/03/22 09:18:01;;;;;;;17.20;9.20;;;15.70;98.00;;;;;;5047429;28;20457;-61
2024/03/22 09:20:28;;;;;;;16.20;8.73;;;15.70;98.00;;;;;;5032165;28;20987;-61
2024/03/22 09:22:55;;;;;;;15.57;8.20;;;15.80;98.00;;;;;;5032126;28;20469;-61
2024/03/22 09:25:22;;;;;;;18.23;8.27;;;15.80;98.00;;;;;;5031976;28;20540;-61
2024/03/22 09:27:48;;;;;;;19.03;8.77;;;15.90;98.00;;;;;;5032299;28;20825;-61
2024/03/22 09:30:15;;;;;;;12.87;7.83;;;15.90;98.00;;;;;;5032315;28;20461;-61
2024/03/22 09:32:42;;;;;;;20.53;9.63;;;16.00;98.00;;;;;;5031879;28;20865;-61
2024/03/22 09:35:14;;;;;;;16.87;8.90;;;16.00;98.00;;;;;;5031706;28;20520;-61
2024/03/22 09:37:41;;;;;;;16.30;8.23;;;16.00;98.00;;;;;;5030276;28;20462;-61
2024/03/22 09:40:10;;;;;;;15.23;7.70;;;16.10;98.00;;;;;;5031673;28;20473;-61
2024/03/22 09:42:39;;;;;;;12.50;6.50;;;16.40;98.00;;;;;;5046771;28;20952;-61
2024/03/22 09:45:11;;;;;;;17.07;8.23;;;16.60;98.00;;;;;;5031587;28;20887;-61
2024/03/22 09:47:38;;;;;;;14.67;7.47;;;16.70;98.00;;;;;;5031727;28;20457;-61
2024/03/22 09:50:08;;;;;;;12.07;6.93;;;16.80;98.00;;;;;;5031406;28;20482;-61
2024/03/22 09:52:38;;;;;;;12.63;6.80;;;16.90;98.00;;;;;;5031655;28;20520;-61
2024/03/22 09:55:06;;;;;;;13.23;7.20;;;17.00;98.00;;;;;;5030896;28;20469;-61
2024/03/22 09:57:37;;;;;;;12.07;6.60;;;17.20;98.00;;;;;;5031413;28;20528;-61
2024/03/22 10:00:08;;;;;;;15.77;6.97;;;17.40;98.00;;;;;;5031225;28;20516;-61
2024/03/22 10:02:34;;;;;;;12.70;6.60;;;17.50;98.00;;;;;;5030992;28;20544;-61
2024/03/22 10:05:02;;;;;;;11.33;6.63;;;17.60;98.00;;;;;;5031508;28;20608;-62
2024/03/22 10:07:29;;;;;;;13.70;6.37;;;17.80;98.00;;;;;;5031246;28;20807;-61
2024/03/22 10:10:00;;;;;;;11.30;6.57;;;18.00;98.00;;;;;;5031248;28;20522;-62
2024/03/22 10:12:27;;;;;;;10.97;7.07;;;18.20;98.00;;;;;;5030816;28;20482;-62
2024/03/22 10:14:53;;;;;;;13.40;6.53;;;18.30;98.00;;;;;;5031112;28;20541;-62
2024/03/22 10:17:21;;;;;;;12.27;6.90;;;18.40;98.00;;;;;;5031870;28;20467;-62
2024/03/22 10:19:51;;;;;;;11.87;6.43;;;18.70;98.00;;;;;;5032036;28;20458;-62
2024/03/22 10:22:18;;;;;;;12.40;6.47;;;18.80;98.00;;;;;;5031908;28;20991;-62
2024/03/22 10:24:44;;;;;;;15.03;7.00;;;19.00;98.00;;;;;;5031787;28;20451;-62
2024/03/22 10:27:14;;;;;;;10.63;6.30;;;18.90;98.00;;;;;;5030690;28;20512;-62
2024/03/22 10:29:42;;;;;;;11.80;6.63;;;18.90;98.00;;;;;;5031697;28;20490;-62
2024/03/22 10:32:11;;;;;;;14.57;7.33;;;18.80;98.00;;;;;;5031111;28;20889;-62
2024/03/22 10:34:39;;;;;;;13.70;6.73;;;18.90;98.00;;;;;;5031760;28;20461;-62
2024/03/22 10:37:09;;;;;;;15.60;7.27;;;19.10;98.00;;;;;;5047028;28;20554;-62
2024/03/22 10:39:35;;;;;;;14.40;6.83;;;19.20;98.00;;;;;;5031752;28;20999;-62
2024/03/22 10:42:02;;;;;;;14.77;6.53;;;19.30;98.00;;;;;;5031783;28;20822;-62
2024/03/22 10:44:30;;;;;;;12.67;6.80;;;19.20;98.00;;;;;;5031595;28;20451;-61
2024/03/22 10:47:02;;;;;;;11.00;6.50;;;19.20;98.00;;;;;;5031684;28;21152;-61
2024/03/22 10:49:33;;;;;;;14.20;7.40;;;19.20;98.00;;;;;;5046735;28;20490;-62
2024/03/22 10:52:04;;;;;;;12.33;6.70;;;18.80;98.00;;;;;;5031990;28;20549;-62
2024/03/22 10:54:34;;;;;;;15.67;7.20;;;18.70;98.00;;;;;;5031519;28;20454;-62
2024/03/22 10:57:02;;;;;;;11.47;6.53;;;18.80;98.00;;;;;;5031658;28;20524;-62
2024/03/22 10:59:35;;;;;;;11.73;7.00;;;19.00;98.00;;;;;;5031513;28;20450;-61
2024/03/22 11:02:06;;;;;;;11.27;6.57;;;19.10;98.00;;;;;;5031626;28;20467;-62
2024/03/22 11:04:33;;;;;;;13.00;6.73;;;19.20;98.00;;;;;;5031650;28;20467;-62
2024/03/22 11:07:00;;;;;;;15.10;6.47;;;19.40;98.00;;;;;;5031500;28;20561;-62
2024/03/22 11:09:27;;;;;;;13.20;6.80;;;19.50;98.00;;;;;;5031464;28;20584;-62
2024/03/22 11:11:55;;;;;;;12.10;7.30;;;19.60;98.00;;;;;;5030242;28;20945;-62
2024/03/22 11:14:21;;;;;;;11.53;6.27;;;19.80;98.00;;;;;;5031747;28;20516;-62
2024/03/22 11:16:49;;;;;;;11.17;6.70;;;19.90;98.00;;;;;;5031702;28;20463;-62
2024/03/22 11:19:16;;;;;;;11.17;6.63;;;20.10;98.00;;;;;;5031332;28;20442;-62
2024/03/22 11:21:43;;;;;;;13.47;6.63;;;20.20;98.00;;;;;;5031444;28;20471;-62
2024/03/22 11:24:10;;;;;;;12.70;7.10;;;20.30;98.00;;;;;;5033050;28;20454;-62
2024/03/22 11:26:38;;;;;;;11.40;7.13;;;20.30;98.00;;;;;;5034945;28;20458;-62
2024/03/22 11:29:04;;;;;;;11.07;5.50;;;20.10;98.00;;;;;;5034813;28;20525;-62
2024/03/22 11:31:32;;;;;;;10.73;5.97;;;20.10;98.00;;;;;;5034995;28;20486;-62
2024/03/22 11:34:00;;;;;;;12.70;6.53;;;20.40;98.00;;;;;;5034893;28;20446;-62
2024/03/22 11:36:27;;;;;;;12.43;6.47;;;20.60;98.00;;;;;;5034779;28;20516;-62
2024/03/22 11:38:54;;;;;;;12.10;6.70;;;20.70;98.00;;;;;;5034575;28;20473;-62
2024/03/22 11:41:25;;;;;;;11.03;5.70;;;20.90;98.00;;;;;;5034240;28;20554;-62
2024/03/22 11:43:52;;;;;;;10.30;6.17;;;21.00;98.00;;;;;;5034541;28;20512;-62
2024/03/22 11:46:22;;;;;;;10.87;6.03;;;21.20;98.00;;;;;;5049555;28;20494;-62
2024/03/22 11:48:55;;;;;;;11.90;6.43;;;21.50;97.60;;;;;;5033608;28;20518;-62
2024/03/22 11:51:24;;;;;;;13.57;7.50;;;21.60;97.60;;;;;;5033845;28;20528;-62
2024/03/22 11:53:51;;;;;;;10.33;6.33;;;21.80;96.20;;;;;;5033848;28;20451;-62
2024/03/22 11:56:20;;;;;;;11.20;6.60;;;21.60;98.00;;;;;;5034183;28;20498;-62
2024/03/22 11:58:47;;;;;;;12.50;7.60;;;21.60;96.80;;;;;;5049345;28;20489;-62
2024/03/22 12:01:15;;;;;;;16.63;6.87;;;21.70;98.00;;;;;;5034422;28;20459;-62
2024/03/22 12:03:43;;;;;;;11.23;6.50;;;21.50;97.30;;;;;;5034030;28;20459;-61
2024/03/22 12:06:11;;;;;;;12.83;6.53;;;21.50;96.80;;;;;;5033852;28;20471;-62
2024/03/22 12:08:40;;;;;;;12.50;6.57;;;21.60;97.10;;;;;;5032692;28;20907;-62
2024/03/22 12:11:14;;;;;;;13.40;6.93;;;21.90;95.50;;;;;;5034250;28;20467;-61
2024/03/22 12:13:40;;;;;;;10.30;6.70;;;22.20;95.90;;;;;;5033714;28;20486;-62
2024/03/22 12:16:08;;;;;;;10.90;6.80;;;22.50;94.00;;;;;;5034285;28;20465;-62
2024/03/22 12:18:35;;;;;;;10.90;6.80;;;22.60;95.50;;;;;;5033911;28;20537;-62
2024/03/22 12:21:02;;;;;;;13.03;6.80;;;22.80;95.70;;;;;;5034049;28;20848;-62
2024/03/22 12:23:28;;;;;;;11.27;6.30;;;22.80;92.80;;;;;;5033830;28;20549;-62
2024/03/22 12:25:57;;;;;;;12.30;6.70;;;22.70;93.10;;;;;;5033658;28;20516;-62
2024/03/22 12:28:23;;;;;;;13.23;6.40;;;22.90;94.80;;;;;;5033927;28;20447;-62
2024/03/22 12:30:51;;;;;;;10.43;6.30;;;22.90;92.40;;;;;;5033951;28;20458;-62
2024/03/22 12:33:17;;;;;;;16.30;6.37;;;23.00;94.00;;;;;;5033723;28;20806;-62
2024/03/22 12:35:45;;;;;;;11.27;6.33;;;22.90;93.90;;;;;;5032150;28;20470;-62
2024/03/22 12:38:13;;;;;;;11.00;6.60;;;22.80;91.50;;;;;;5033804;28;20459;-62
2024/03/22 12:40:41;;;;;;;11.67;6.83;;;22.60;92.10;;;;;;5033783;28;20546;-62
2024/03/22 12:43:10;;;;;;;12.33;6.30;;;22.40;91.50;;;;;;5033384;28;20454;-62
2024/03/22 12:45:37;;;;;;;9.40;6.17;;;22.40;93.70;;;;;;5033504;28;20525;-62